Bowyer, South Carolina
Current Conditions -  °F | °C
As of 10:35 AM on Sunday 21 Dec 2014 (Local Time) from KDYB Reporting Station
Overcast Overcast  
Wind Chill: 41°   Ceiling: 7500
Heat Index: 45°   Visibility: 10mi
Dew Point: 41°   Wind: 6mph
Humidity: 87%   Direction: 30°NNE
Pressure: 30.26"   Gusts: NA
Location:  33.3181°N, 80.3899°W
Report Text: KDYB 211535Z AUTO 03005KT 10SM SCT065 OVC075 07/05 A3026 RMK AO1
Loading
Personal Weather Stations






























Interactive Weather Map New forecast layout! Learn more

10-Day Weather Forecast

Advertisements
Track Severe Weather on mobile